Time;durP1;ratioP1;P1;durP2;ratioP2;P2;SDS_P1;SDS_P2;PMS_P1;PMS_P2;Temp;Humidity;BMP_temperature;BMP_pressure;BME280_temperature;BME280_humidity;BME280_pressure;Samples;Min_cycle;Max_cycle;Signal;HPM_P1;HPM_P2
2022/12/26 00:02:08;;;;;;;3.20;2.90;;;12.50;73.80;;;11.21;68.81;100637.63;12254755;19;19943;-85
2022/12/26 00:06:21;;;;;;;2.85;2.40;;;12.40;73.60;;;11.24;68.82;100629.63;12254099;19;20490;-84
2022/12/26 00:10:22;;;;;;;3.03;2.70;;;12.40;73.60;;;11.24;68.82;100623.56;12251567;19;20031;-85
2022/12/26 00:14:24;;;;;;;2.70;2.50;;;12.50;73.80;;;11.28;68.78;100628.47;12255215;19;20394;-85
2022/12/26 00:18:26;;;;;;;5.00;2.70;;;12.50;74.00;;;11.10;68.89;100585.16;12252658;19;20385;-84
2022/12/26 00:22:28;;;;;;;2.35;2.15;;;12.50;74.10;;;11.38;68.86;100636.63;12252570;19;20836;-85
2022/12/26 00:26:34;;;;;;;3.05;2.53;;;12.60;74.30;;;11.31;68.91;100622.22;12255697;19;20010;-85
2022/12/26 00:30:37;;;;;;;5.03;2.72;;;12.60;74.30;;;11.43;68.96;100631.97;12250406;19;20021;-85
2022/12/26 00:34:39;;;;;;;3.00;2.40;;;12.60;74.30;;;11.46;68.96;100610.84;12254661;19;20006;-84
2022/12/26 00:38:43;;;;;;;3.78;2.20;;;12.70;74.40;;;11.24;68.99;100586.97;12252541;19;20460;-84
2022/12/26 00:42:45;;;;;;;2.70;2.40;;;12.70;74.30;;;11.45;69.00;100611.81;12252141;19;20103;-85
2022/12/26 00:46:46;;;;;;;3.08;2.60;;;12.90;74.50;;;11.55;69.00;100619.91;12251908;19;20357;-85
2022/12/26 00:50:49;;;;;;;3.22;2.42;;;12.70;74.50;;;11.35;69.03;100573.25;12248518;19;20517;-85
2022/12/26 00:54:50;;;;;;;2.30;2.10;;;12.80;74.60;;;11.48;69.03;100582.84;12253688;19;20018;-84
2022/12/26 00:58:52;;;;;;;3.20;2.40;;;12.80;74.60;;;11.57;69.04;100597.13;12251195;19;20018;-84
2022/12/26 01:02:54;;;;;;;2.40;1.90;;;12.80;74.60;;;11.63;69.05;100599.34;12252891;19;20019;-85
2022/12/26 01:06:56;;;;;;;2.45;2.10;;;12.80;74.50;;;11.65;69.01;100580.97;12250545;19;20018;-85
2022/12/26 01:11:08;;;;;;;3.45;1.65;;;12.90;74.50;;;11.64;69.01;100589.75;12249103;19;20085;-85
2022/12/26 01:15:10;;;;;;;2.80;2.28;;;12.90;74.50;;;11.64;69.00;100572.28;12251520;19;20524;-85
2022/12/26 01:19:12;;;;;;;2.45;2.25;;;12.90;74.60;;;11.74;69.11;100577.75;12248761;19;20002;-85
2022/12/26 01:23:14;;;;;;;2.45;1.95;;;12.90;74.80;;;11.76;69.04;100578.53;12251401;19;20019;-84
2022/12/26 01:27:16;;;;;;;1.73;1.63;;;12.90;74.50;;;11.68;68.98;100562.47;12249823;19;20013;-84
2022/12/26 01:31:20;;;;;;;1.85;1.50;;;13.00;74.60;;;11.74;69.10;100562.91;12245149;19;20076;-85
2022/12/26 01:35:21;;;;;;;2.90;1.90;;;13.00;74.60;;;11.78;68.95;100553.09;12248820;19;20361;-85
2022/12/26 01:39:23;;;;;;;2.25;1.90;;;13.00;74.60;;;11.86;68.97;100573.59;12246554;19;20112;-84
2022/12/26 01:43:25;;;;;;;1.80;1.70;;;13.10;74.60;;;11.78;69.01;100555.72;12251184;19;20024;-85
2022/12/26 01:47:50;;;;;;;3.10;1.95;;;13.10;74.60;;;11.88;69.10;100562.09;12248316;19;20015;-85
2022/12/26 01:52:00;;;;;;;2.33;1.90;;;13.10;74.60;;;11.85;69.00;100562.22;12249282;19;20011;-85
2022/12/26 01:56:12;;;;;;;1.80;1.70;;;13.20;74.50;;;11.84;68.98;100550.09;12247809;19;20275;-85
2022/12/26 02:00:14;;;;;;;3.05;1.70;;;13.10;74.40;;;11.91;69.14;100553.22;12246230;19;20015;-84
2022/12/26 02:08:47;;;;;;;1.55;1.45;;;13.10;74.40;;;11.89;69.11;100532.34;12244128;19;20025;-84
2022/12/26 02:12:49;;;;;;;4.32;1.90;;;13.20;74.40;;;11.92;69.05;100537.41;12246784;19;20019;-84
2022/12/26 02:16:52;;;;;;;1.80;1.70;;;13.20;74.40;;;11.93;69.03;100540.84;12248432;19;20074;-83
2022/12/26 02:21:31;;;;;;;1.77;1.55;;;13.20;74.30;;;12.01;69.04;100554.28;12242531;19;20018;-83
2022/12/26 02:26:20;;;;;;;2.85;1.92;;;13.20;74.30;;;12.01;69.07;100556.06;12247345;19;20014;-84
2022/12/26 02:31:07;;;;;;;2.75;1.70;;;13.20;74.50;;;11.96;69.02;100543.25;12245466;19;20102;-83
2022/12/26 02:36:00;;;;;;;1.73;1.63;;;13.20;74.30;;;12.03;69.04;100541.09;12246615;19;20015;-84
2022/12/26 02:40:30;;;;;;;1.75;1.65;;;13.20;74.30;;;12.03;69.06;100539.31;12242310;19;20019;-84
2022/12/26 02:49:19;;;;;;;2.28;1.52;;;13.20;74.20;;;12.09;69.11;100533.69;12244518;19;20073;-84
2022/12/26 03:21:03;;;;;;;2.53;1.70;;;13.40;74.50;;;12.08;69.17;100523.34;12242307;19;20019;-84
2022/12/26 03:34:18;;;;;;;1.67;1.55;;;13.40;74.30;;;12.26;69.14;100545.72;12252129;19;20010;-84
2022/12/26 03:38:27;;;;;;;1.75;1.65;;;13.50;74.30;;;12.26;69.11;100552.69;12255585;19;20006;-83
2022/12/26 04:20:39;;;;;;;1.83;1.73;;;13.60;73.90;;;12.32;68.99;100581.13;12248287;19;20095;-84
2022/12/26 04:47:01;;;;;;;1.83;1.73;;;13.70;73.50;;;12.43;68.98;100557.69;12253860;19;20024;-84
2022/12/26 04:51:04;;;;;;;2.38;1.63;;;13.70;73.50;;;12.53;68.99;100568.38;12250142;19;20482;-84
2022/12/26 04:55:06;;;;;;;2.10;1.98;;;13.70;73.50;;;12.44;68.97;100558.53;12254502;19;20021;-84
2022/12/26 04:59:08;;;;;;;1.88;1.70;;;13.70;73.40;;;12.44;68.98;100558.53;12249195;19;20015;-84
2022/12/26 05:11:56;;;;;;;2.17;1.65;;;13.70;73.20;;;12.58;68.89;100588.13;12251182;19;20018;-84
2022/12/26 05:29:02;;;;;;;2.33;2.13;;;13.80;73.10;;;12.50;68.85;100586.91;12250150;19;20011;-84
2022/12/26 05:37:24;;;;;;;2.97;1.70;;;13.70;73.00;;;12.54;68.93;100599.72;12250192;19;20014;-84
2022/12/26 05:41:27;;;;;;;1.77;1.67;;;13.70;73.10;;;12.47;69.00;100581.88;12245529;19;20014;-84
2022/12/26 05:45:28;;;;;;;2.00;1.80;;;13.70;73.80;;;12.31;69.07;100569.81;12249810;19;20040;-84
2022/12/26 05:49:32;;;;;;;2.17;2.00;;;13.70;73.20;;;12.30;68.77;100548.94;12246553;19;20031;-84
2022/12/26 05:53:34;;;;;;;2.00;1.90;;;13.90;73.40;;;12.59;69.06;100594.19;12248198;19;20010;-84
2022/12/26 05:57:36;;;;;;;2.13;1.92;;;13.70;73.20;;;12.40;69.00;100571.00;12249039;19;20041;-84
2022/12/26 06:01:37;;;;;;;2.65;2.15;;;13.70;73.20;;;12.54;68.88;100591.88;12246557;19;20014;-84
2022/12/26 06:05:39;;;;;;;3.47;2.28;;;13.70;73.10;;;12.65;68.92;100608.66;12247085;19;20006;-84
2022/12/26 06:09:41;;;;;;;2.53;2.33;;;13.80;73.20;;;12.63;69.00;100600.91;12247852;19;20082;-84
2022/12/26 06:13:44;;;;;;;3.05;2.65;;;13.80;73.30;;;12.71;69.01;100613.50;12247176;19;20044;-84
2022/12/26 06:17:46;;;;;;;2.42;2.22;;;13.80;73.10;;;12.65;68.92;100604.25;12247155;19;20094;-84
2022/12/26 06:21:48;;;;;;;3.05;2.67;;;13.80;73.10;;;12.70;68.89;100598.72;12244099;19;20345;-84
2022/12/26 06:25:55;;;;;;;1.95;1.85;;;13.80;73.00;;;12.73;68.88;100604.59;12249423;19;20006;-84
2022/12/26 06:29:57;;;;;;;2.28;2.08;;;13.90;73.00;;;12.67;68.92;100585.84;12246840;19;20017;-84
2022/12/26 06:34:00;;;;;;;1.65;1.55;;;13.90;73.00;;;12.43;68.90;100549.84;12248734;19;20014;-84
2022/12/26 06:38:02;;;;;;;1.83;1.73;;;13.90;73.00;;;12.74;68.83;100601.03;12247781;19;20018;-84
2022/12/26 06:42:05;;;;;;;2.03;1.67;;;13.90;73.00;;;12.78;68.86;100625.25;12245451;19;20021;-84
2022/12/26 06:46:10;;;;;;;1.75;1.65;;;13.90;72.90;;;12.72;68.90;100625.63;12247642;19;20018;-84
2022/12/26 06:50:12;;;;;;;1.58;1.48;;;13.90;72.80;;;12.74;68.88;100637.69;12242385;19;20491;-84
2022/12/26 06:54:14;;;;;;;2.15;1.73;;;13.90;72.80;;;12.69;68.93;100626.72;12244150;19;20031;-84
2022/12/26 06:58:17;;;;;;;2.75;1.77;;;13.90;72.80;;;12.73;68.87;100650.94;12244496;19;20021;-84
2022/12/26 07:02:19;;;;;;;1.98;1.73;;;13.90;72.70;;;12.80;68.82;100665.31;12264822;19;20018;-84
2022/12/26 07:06:23;;;;;;;1.63;1.52;;;14.00;72.80;;;12.83;68.79;100676.44;12269008;19;20011;-84
2022/12/26 07:10:25;;;;;;;2.17;1.55;;;14.00;72.80;;;12.78;68.88;100678.50;12266750;19;20011;-83
2022/12/26 07:14:27;;;;;;;2.38;1.95;;;14.00;72.70;;;12.85;68.76;100694.66;12268012;19;20010;-84
2022/12/26 07:18:29;;;;;;;2.60;1.70;;;14.00;72.80;;;12.87;68.81;100700.63;12267285;19;20094;-84
2022/12/26 07:22:30;;;;;;;1.98;1.88;;;14.00;72.70;;;12.90;68.92;100691.75;12269013;19;20010;-84
2022/12/26 07:26:32;;;;;;;2.00;1.80;;;14.00;72.70;;;12.88;68.79;100675.25;12265097;19;20304;-88
2022/12/26 07:30:34;;;;;;;2.22;1.50;;;14.00;72.60;;;12.94;68.90;100690.63;12261678;19;20082;-85
2022/12/26 07:34:36;;;;;;;2.20;1.75;;;14.00;72.60;;;12.59;68.81;100631.69;12268696;19;20374;-84
2022/12/26 07:38:37;;;;;;;1.58;1.48;;;14.00;72.50;;;12.81;68.76;100666.97;12266457;19;20010;-84
2022/12/26 07:42:39;;;;;;;1.63;1.52;;;14.00;72.50;;;12.74;68.83;100660.44;12267909;19;20370;-83
2022/12/26 07:46:41;;;;;;;1.73;1.63;;;14.10;72.50;;;12.91;68.85;100673.31;12266893;19;20007;-83
2022/12/26 07:50:48;;;;;;;3.08;1.90;;;14.10;72.50;;;12.75;68.75;100649.06;12263410;19;20021;-82
2022/12/26 07:54:49;;;;;;;1.85;1.60;;;14.10;72.50;;;12.94;68.86;100688.00;12270557;19;20019;-82
2022/12/26 07:58:51;;;;;;;1.73;1.42;;;14.10;72.50;;;12.95;68.82;100690.50;12266340;19;20015;-82
2022/12/26 08:02:53;;;;;;;1.83;1.58;;;14.10;72.50;;;12.93;68.77;100702.84;12270535;19;20014;-82
2022/12/26 08:06:55;;;;;;;1.42;1.30;;;14.10;72.50;;;12.95;68.83;100705.38;12270254;19;20416;-83
2022/12/26 08:11:06;;;;;;;2.17;1.88;;;14.10;72.50;;;13.00;68.65;100717.25;12259978;19;20572;-82
2022/12/26 08:15:11;;;;;;;3.50;2.45;;;14.10;72.50;;;12.99;68.76;100707.72;12255054;19;20077;-82
2022/12/26 08:19:13;;;;;;;2.03;1.90;;;14.10;72.50;;;12.98;68.71;100699.94;12252705;19;20043;-82
2022/12/26 08:23:16;;;;;;;2.00;1.85;;;14.10;72.50;;;12.94;68.70;100688.81;12255938;19;20010;-83
2022/12/26 08:27:17;;;;;;;2.28;1.90;;;14.10;72.50;;;12.99;68.65;100691.16;12252119;19;20022;-83
2022/12/26 08:31:20;;;;;;;2.08;1.77;;;14.20;73.20;;;12.97;68.71;100696.47;12248126;19;20391;-82
2022/12/26 08:35:22;;;;;;;2.88;2.03;;;14.20;72.50;;;12.95;68.73;100682.63;12251943;19;20014;-83
2022/12/26 08:39:24;;;;;;;2.13;1.92;;;14.20;72.70;;;13.00;68.74;100679.72;12252150;19;20031;-83
2022/12/26 08:43:26;;;;;;;2.50;2.28;;;14.20;72.70;;;13.07;68.77;100704.59;12252489;19;20497;-82
2022/12/26 08:47:28;;;;;;;1.67;1.58;;;14.20;72.70;;;13.02;68.61;100681.28;12252682;19;20002;-82
2022/12/26 08:51:29;;;;;;;3.65;1.83;;;14.20;72.70;;;13.13;68.82;100703.34;12248282;19;20510;-82
2022/12/26 08:55:31;;;;;;;3.67;2.08;;;14.40;72.90;;;13.05;68.64;100683.72;12251676;19;20015;-84
2022/12/26 08:59:34;;;;;;;2.10;1.90;;;14.30;72.80;;;13.13;68.78;100698.09;12249016;19;20040;-89
2022/12/26 09:03:35;;;;;;;1.80;1.70;;;14.30;72.80;;;13.11;68.72;100687.69;12253487;19;20010;-85
2022/12/26 09:07:37;;;;;;;2.90;2.28;;;14.30;72.70;;;13.10;68.72;100691.28;12250145;19;20015;-84
2022/12/26 09:11:40;;;;;;;1.77;1.67;;;14.30;72.80;;;13.14;68.69;100713.72;12248344;19;20002;-84
2022/12/26 09:15:42;;;;;;;2.70;2.13;;;14.30;72.70;;;13.18;68.70;100728.31;12252741;19;20018;-84
2022/12/26 09:19:44;;;;;;;3.30;2.42;;;14.30;72.80;;;12.98;68.68;100700.78;12248921;19;20516;-84
2022/12/26 09:23:45;;;;;;;2.20;2.00;;;14.30;72.80;;;13.20;68.70;100736.06;12249915;19;20044;-86
2022/12/26 09:27:48;;;;;;;3.13;2.13;;;14.30;72.90;;;13.17;68.83;100734.47;12251693;19;20043;-84
2022/12/26 09:31:50;;;;;;;2.25;2.05;;;14.30;72.90;;;13.15;68.83;100739.00;12245511;19;20047;-85
2022/12/26 09:35:52;;;;;;;2.72;2.35;;;14.30;72.90;;;13.18;68.86;100733.56;12250017;19;20007;-84
2022/12/26 09:39:53;;;;;;;2.10;1.90;;;14.30;73.00;;;13.15;68.83;100725.91;12246428;19;20011;-84
2022/12/26 09:44:43;;;;;;;2.00;1.83;;;14.30;73.10;;;13.22;68.72;100745.50;12250378;19;20011;-84
2022/12/26 09:48:59;;;;;;;2.95;2.28;;;14.40;73.20;;;13.18;68.76;100732.72;12247900;19;20017;-83
2022/12/26 09:53:13;;;;;;;2.45;1.88;;;14.30;73.20;;;13.24;68.66;100746.25;12249356;19;20371;-84
2022/12/26 09:57:22;;;;;;;2.30;1.98;;;14.40;73.30;;;13.16;68.76;100708.38;12248650;19;20014;-84
2022/12/26 10:01:30;;;;;;;1.90;1.80;;;14.40;73.30;;;13.21;68.83;100722.88;12245389;19;20338;-84
2022/12/26 10:05:45;;;;;;;2.60;2.38;;;14.40;73.40;;;13.27;68.91;100725.09;12248461;19;20018;-83
2022/12/26 10:10:08;;;;;;;3.25;2.45;;;14.50;73.50;;;13.33;68.85;100725.66;12247838;19;20493;-84
2022/12/26 10:14:43;;;;;;;2.30;2.10;;;14.50;73.50;;;13.37;68.70;100759.44;12248530;19;20023;-83
2022/12/26 10:19:34;;;;;;;6.35;5.25;;;14.50;73.50;;;13.37;68.71;100766.47;12248049;19;20010;-83
2022/12/26 10:23:44;;;;;;;9.20;6.15;;;14.50;73.50;;;13.33;68.82;100759.75;12247525;19;20018;-83
2022/12/26 10:27:49;;;;;;;5.90;4.65;;;14.50;73.40;;;13.41;68.93;100762.69;12247836;19;20049;-84
2022/12/26 10:32:03;;;;;;;4.10;3.70;;;14.60;73.40;;;13.33;68.66;100751.88;12245923;19;20019;-84
2022/12/26 10:36:12;;;;;;;3.05;2.83;;;14.50;73.20;;;13.47;68.75;100765.75;12245935;19;20006;-85
2022/12/26 10:40:34;;;;;;;3.10;2.70;;;14.60;73.20;;;13.48;68.89;100782.34;12245347;19;20090;-86
2022/12/26 10:44:42;;;;;;;3.20;2.90;;;14.60;73.20;;;13.38;68.83;100766.34;12246179;19;20011;-86
2022/12/26 10:48:45;;;;;;;2.15;2.05;;;14.60;73.10;;;13.42;68.78;100761.75;12244343;19;20694;-86
2022/12/26 10:52:48;;;;;;;2.13;2.03;;;14.60;72.90;;;13.42;68.74;100751.25;12243058;19;20035;-86
2022/12/26 10:56:52;;;;;;;2.90;2.70;;;14.70;72.90;;;13.33;68.85;100725.66;12244832;19;20019;-86
2022/12/26 11:00:53;;;;;;;2.50;2.30;;;14.70;72.60;;;13.46;68.73;100734.38;12246226;19;20472;-87
2022/12/26 11:05:06;;;;;;;2.00;1.85;;;14.70;72.60;;;13.54;68.61;100742.56;12246852;19;20023;-86
2022/12/26 11:09:39;;;;;;;2.00;1.90;;;14.70;72.50;;;13.43;68.67;100731.97;12245508;19;20014;-86
2022/12/26 11:13:53;;;;;;;3.80;3.50;;;14.70;72.30;;;13.44;68.65;100731.00;12246886;19;20464;-86
2022/12/26 11:18:27;;;;;;;3.58;3.20;;;14.70;72.00;;;13.37;68.60;100724.50;12247647;19;20014;-87
2022/12/26 11:22:29;;;;;;;2.25;2.05;;;14.60;71.80;;;13.44;68.63;100747.59;12230362;19;20014;-86
2022/12/26 11:26:31;;;;;;;2.13;1.98;;;14.70;71.90;;;13.41;68.70;100734.69;12244831;19;20014;-87
2022/12/26 11:30:37;;;;;;;1.73;1.63;;;14.70;71.60;;;13.16;68.49;100688.25;12240233;19;20019;-88
2022/12/26 11:34:47;;;;;;;1.50;1.40;;;14.60;71.40;;;13.43;68.50;100738.03;12243052;19;20006;-86
2022/12/26 11:39:00;;;;;;;1.55;1.42;;;14.60;71.40;;;13.34;68.51;100724.69;12242603;19;20006;-86
2022/12/26 11:43:12;;;;;;;1.75;1.65;;;14.60;71.30;;;13.42;68.56;100719.78;12244299;19;20027;-86
2022/12/26 11:47:18;;;;;;;2.15;1.65;;;14.60;71.40;;;13.16;68.60;100688.25;12248222;19;20017;-86
2022/12/26 11:51:40;;;;;;;1.85;1.75;;;14.60;71.30;;;13.44;68.49;100738.88;12251443;19;20014;-86
2022/12/26 11:55:43;;;;;;;3.00;2.22;;;14.60;71.40;;;13.49;68.46;100752.53;12252058;19;20484;-85
2022/12/26 11:59:46;;;;;;;3.13;2.38;;;14.60;71.30;;;13.38;68.42;100747.16;12249099;19;20031;-85
2022/12/26 12:03:48;;;;;;;2.03;1.83;;;14.60;71.30;;;13.35;68.45;100750.81;12252486;19;20007;-85
2022/12/26 12:08:12;;;;;;;1.98;1.88;;;14.60;71.30;;;13.38;68.32;100760.28;12253284;19;20035;-85
2022/12/26 12:12:45;;;;;;;2.40;1.83;;;14.60;71.50;;;13.46;68.46;100779.81;12249213;19;20011;-85
2022/12/26 12:16:55;;;;;;;3.03;1.70;;;14.60;71.50;;;13.48;68.46;100763.97;12254627;19;20014;-85
2022/12/26 12:22:00;;;;;;;1.65;1.55;;;14.60;71.60;;;13.38;68.43;100755.03;12250729;19;20053;-85
2022/12/26 12:26:10;;;;;;;3.70;1.90;;;14.60;71.70;;;13.37;68.53;100761.22;12248272;19;20034;-86
2022/12/26 12:30:46;;;;;;;1.98;1.77;;;14.60;71.80;;;13.45;68.48;100756.31;12249683;19;20436;-86
2022/12/26 12:35:33;;;;;;;1.88;1.77;;;14.60;71.80;;;13.45;68.48;100745.81;12254411;19;20082;-86
2022/12/26 12:39:46;;;;;;;1.70;1.60;;;14.60;71.90;;;13.46;68.52;100750.13;12251521;19;20098;-86
2022/12/26 12:44:22;;;;;;;1.70;1.60;;;14.50;71.80;;;13.42;68.30;100741.63;12252567;19;20027;-86
2022/12/26 12:49:43;;;;;;;1.90;1.33;;;14.60;71.90;;;13.44;68.41;100739.72;12253377;19;20081;-86
2022/12/26 12:53:56;;;;;;;3.40;1.70;;;14.60;72.00;;;13.47;68.41;100733.41;12250401;19;20053;-86
2022/12/26 12:58:57;;;;;;;1.73;1.63;;;14.60;71.80;;;13.35;68.37;100734.25;12251048;19;20022;-86
2022/12/26 13:03:05;;;;;;;2.15;1.95;;;14.50;71.80;;;13.45;68.38;100746.66;12251128;19;20026;-86
2022/12/26 13:07:21;;;;;;;1.63;1.52;;;14.60;71.90;;;13.16;68.38;100700.53;12256410;19;20007;-87
2022/12/26 13:11:39;;;;;;;1.75;1.63;;;14.50;71.90;;;13.42;68.39;100744.25;12253764;19;20018;-85
2022/12/26 13:15:51;;;;;;;1.52;1.42;;;14.50;71.80;;;13.39;68.27;100725.22;12248909;19;20121;-84
2022/12/26 13:20:27;;;;;;;1.58;1.48;;;14.50;71.80;;;13.43;68.36;100743.28;12247157;19;20368;-84
2022/12/26 13:24:42;;;;;;;1.70;1.50;;;14.50;71.60;;;13.42;68.20;100756.50;12250732;19;20046;-83
2022/12/26 13:28:59;;;;;;;1.58;1.48;;;14.50;71.60;;;13.41;68.22;100750.41;12247363;19;20022;-85
2022/12/26 13:33:01;;;;;;;2.47;2.05;;;14.70;71.80;;;13.43;68.36;100747.69;12250096;19;20074;-84
2022/12/26 13:37:03;;;;;;;1.85;1.70;;;14.50;71.50;;;13.32;68.21;100721.34;12252802;19;20031;-84
2022/12/26 13:45:56;;;;;;;2.33;1.95;;;14.50;71.50;;;13.32;68.19;100737.09;12250847;19;20026;-84
2022/12/26 13:49:58;;;;;;;2.05;1.85;;;14.50;71.20;;;13.31;68.34;100733.59;12245512;19;20023;-84
2022/12/26 13:54:09;;;;;;;2.45;2.13;;;14.50;71.20;;;13.30;68.12;100752.91;12249478;19;20469;-84
2022/12/26 13:58:38;;;;;;;1.92;1.83;;;14.40;71.20;;;13.33;68.18;100757.13;12247120;19;20475;-84
2022/12/26 14:03:19;;;;;;;1.73;1.60;;;14.40;71.30;;;13.30;68.16;100762.56;12246646;19;20018;-84
2022/12/26 14:07:40;;;;;;;2.22;1.77;;;14.40;71.20;;;13.26;68.14;100762.78;12251414;19;20086;-84
2022/12/26 14:12:20;;;;;;;2.17;1.85;;;14.40;71.30;;;13.22;68.23;100771.75;12243318;19;20019;-84
2022/12/26 14:17:08;;;;;;;1.80;1.70;;;14.30;71.20;;;13.14;68.17;100753.03;12242631;19;20034;-84
2022/12/26 14:21:44;;;;;;;2.00;1.90;;;14.30;71.20;;;13.18;68.13;100775.53;12240356;19;20353;-85
2022/12/26 14:26:14;;;;;;;1.90;1.80;;;14.30;71.20;;;12.84;68.20;100722.66;12252452;19;20468;-84
2022/12/26 14:31:16;;;;;;;1.70;1.33;;;14.20;71.10;;;13.14;68.14;100784.50;12245254;19;20014;-84
2022/12/26 14:35:40;;;;;;;1.42;1.33;;;14.20;71.10;;;13.07;68.14;100786.69;12245980;19;20014;-84
2022/12/26 14:40:07;;;;;;;1.90;1.70;;;14.20;71.00;;;12.98;68.04;100778.56;12248511;19;20018;-84
2022/12/26 14:44:21;;;;;;;1.80;1.58;;;14.10;70.80;;;13.07;68.12;100791.13;12248859;19;20099;-85
2022/12/26 14:48:26;;;;;;;1.80;1.65;;;14.10;70.80;;;13.07;68.17;100785.88;12249918;19;20049;-84
2022/12/26 14:52:39;;;;;;;2.25;2.05;;;14.10;70.70;;;12.97;68.11;100766.41;12249454;19;20476;-85
2022/12/26 14:56:41;;;;;;;1.95;1.85;;;14.10;70.70;;;13.03;68.21;100787.81;12248485;19;20010;-84
2022/12/26 15:00:43;;;;;;;2.67;2.30;;;14.10;70.70;;;13.02;68.06;100780.06;12244411;19;20077;-84
2022/12/26 15:05:12;;;;;;;3.00;2.30;;;14.10;70.50;;;12.90;67.89;100775.63;12246899;19;20484;-85
2022/12/26 15:10:24;;;;;;;2.33;2.13;;;14.00;70.50;;;12.92;67.92;100794.72;12246103;19;20019;-84
2022/12/26 15:15:17;;;;;;;1.98;1.77;;;14.00;70.40;;;12.84;68.03;100789.94;12244107;19;20014;-84
2022/12/26 15:19:43;;;;;;;1.95;1.80;;;13.90;70.20;;;12.85;68.02;100791.63;12243247;19;20031;-85
2022/12/26 15:24:48;;;;;;;2.08;1.98;;;13.90;70.30;;;12.78;68.01;100799.03;12260357;19;20021;-84
2022/12/26 15:29:30;;;;;;;2.38;2.17;;;13.80;70.20;;;12.75;67.90;100790.53;12257648;19;20014;-84
2022/12/26 15:33:42;;;;;;;3.53;2.10;;;13.80;70.30;;;12.64;68.00;100759.78;12261855;19;20035;-85
2022/12/26 15:38:18;;;;;;;2.45;2.25;;;13.80;70.50;;;12.72;68.00;100783.72;12258695;19;20010;-84
2022/12/26 15:43:13;;;;;;;;;;;13.80;70.50;;;12.63;68.04;100765.94;12261627;19;20014;-85
2022/12/26 15:47:56;;;;;;;2.22;1.73;;;13.80;70.90;;;12.67;67.95;100764.81;12255500;19;19923;-85
2022/12/26 15:52:37;;;;;;;4.25;2.03;;;13.70;70.40;;;12.51;67.95;100740.53;12257774;19;20003;-84
2022/12/26 15:57:33;;;;;;;2.10;1.90;;;13.70;70.30;;;12.59;67.83;100764.47;12257473;19;20007;-84
2022/12/26 16:01:45;;;;;;;3.08;2.60;;;13.70;70.40;;;12.53;67.98;100762.22;12245669;19;20037;-84
2022/12/26 16:06:11;;;;;;;3.33;3.03;;;13.60;70.50;;;12.29;67.95;100728.78;12257172;19;20428;-84
2022/12/26 16:10:21;;;;;;;3.53;3.10;;;13.60;70.50;;;12.50;67.89;100770.25;12249102;19;20022;-84
2022/12/26 16:14:38;;;;;;;3.58;2.38;;;13.50;70.40;;;12.46;67.86;100766.16;12253767;19;20010;-84
2022/12/26 16:18:39;;;;;;;2.85;2.58;;;13.50;70.40;;;12.33;67.88;100755.59;12250884;19;20022;-84
2022/12/26 16:22:47;;;;;;;2.78;2.22;;;13.50;70.50;;;12.37;67.85;100775.44;12253819;19;20037;-83
2022/12/26 16:26:49;;;;;;;3.38;2.65;;;13.50;70.50;;;12.39;67.84;100786.66;12251438;19;20089;-84
2022/12/26 16:30:50;;;;;;;3.70;2.92;;;13.50;70.60;;;12.27;67.82;100767.31;12250619;19;20018;-83
2022/12/26 16:34:52;;;;;;;2.70;2.45;;;13.40;70.40;;;12.30;67.95;100767.13;12252206;19;20030;-84
2022/12/26 16:38:55;;;;;;;3.05;2.75;;;13.40;70.50;;;12.31;67.93;100774.06;12253881;19;20018;-85
2022/12/26 16:43:04;;;;;;;3.33;2.30;;;13.30;70.40;;;12.23;67.85;100770.19;12255548;19;20015;-84
2022/12/26 16:47:11;;;;;;;3.47;2.20;;;13.40;70.30;;;12.17;67.86;100763.56;12255117;19;20018;-84
2022/12/26 16:51:45;;;;;;;2.17;1.98;;;13.30;70.10;;;12.20;67.82;100784.31;12251225;19;20047;-85
2022/12/26 16:56:13;;;;;;;1.40;1.30;;;13.20;70.00;;;12.19;67.78;100785.25;12254908;19;20045;-85
2022/12/26 17:00:20;;;;;;;1.92;1.75;;;13.30;70.20;;;12.16;68.00;100780.22;12250114;19;20006;-84
2022/12/26 17:04:28;;;;;;;1.60;1.50;;;13.20;69.90;;;12.03;67.85;100768.81;12251759;19;20002;-84
2022/12/26 17:08:30;;;;;;;1.27;1.08;;;13.20;70.60;;;12.19;67.97;100795.75;12251086;19;20486;-85
2022/12/26 17:12:37;;;;;;;1.35;1.08;;;13.20;69.90;;;11.83;67.93;100752.50;12254179;19;20021;-85
2022/12/26 17:16:39;;;;;;;1.30;1.20;;;13.20;69.90;;;12.06;67.88;100787.78;12254039;19;20053;-85
2022/12/26 17:20:41;;;;;;;1.00;1.00;;;13.20;70.00;;;12.12;67.90;100791.78;12248308;19;20021;-84
2022/12/26 17:24:50;;;;;;;0.90;0.90;;;13.20;69.90;;;12.08;67.86;100799.00;12250206;19;20104;-84
2022/12/26 17:28:52;;;;;;;1.33;1.25;;;13.20;69.80;;;12.02;67.92;100790.69;12253180;19;20026;-84
2022/12/26 17:33:00;;;;;;;4.15;1.38;;;13.30;69.80;;;12.01;67.88;100802.06;12251621;19;20014;-84
2022/12/26 17:37:04;;;;;;;1.33;1.23;;;13.20;70.30;;;12.07;67.92;100812.16;12251286;19;20078;-84
2022/12/26 17:41:08;;;;;;;1.77;1.13;;;13.30;69.70;;;12.03;67.93;100803.66;12248488;19;20021;-85
2022/12/26 17:45:26;;;;;;;1.23;1.13;;;13.20;69.70;;;11.77;67.82;100770.34;12249798;19;20010;-85
2022/12/26 17:49:28;;;;;;;1.20;1.10;;;13.20;69.70;;;12.07;67.87;100822.63;12250533;19;20014;-84
2022/12/26 17:53:32;;;;;;;1.30;1.20;;;13.20;69.80;;;11.94;67.95;100802.44;12252005;19;20045;-84
2022/12/26 17:57:34;;;;;;;1.48;1.00;;;13.20;69.80;;;12.02;67.90;100814.25;12252584;19;20006;-84
2022/12/26 18:01:35;;;;;;;1.38;1.27;;;13.20;69.80;;;11.94;67.98;100826.00;12248432;19;20017;-84
2022/12/26 18:05:37;;;;;;;2.53;2.33;;;13.20;69.70;;;11.95;67.90;100829.47;12253299;19;20022;-84
2022/12/26 18:09:39;;;;;;;1.70;1.60;;;13.10;69.50;;;11.95;67.96;100824.22;12249913;19;20014;-84
2022/12/26 18:13:43;;;;;;;1.23;1.13;;;13.20;69.50;;;12.05;67.97;100855.94;12249956;19;20477;-85
2022/12/26 18:17:48;;;;;;;1.30;1.20;;;13.10;69.40;;;12.02;67.84;100853.50;12252446;19;20014;-84
2022/12/26 18:21:49;;;;;;;2.10;1.17;;;13.10;69.20;;;11.77;67.81;100817.41;12247872;19;20018;-84
2022/12/26 18:26:02;;;;;;;3.25;1.45;;;13.10;69.30;;;11.91;67.86;100854.97;12250478;19;20009;-84
2022/12/26 18:30:04;;;;;;;1.23;1.13;;;13.10;69.00;;;11.89;67.77;100864.69;12245901;19;20023;-83
2022/12/26 18:34:06;;;;;;;2.00;1.50;;;13.10;69.00;;;11.94;67.80;100867.88;12248605;19;20023;-83
2022/12/26 18:38:14;;;;;;;1.20;1.10;;;13.00;68.70;;;11.79;67.62;100853.03;12247744;19;20006;-84
2022/12/26 18:42:18;;;;;;;1.58;1.20;;;13.00;68.50;;;11.88;67.80;100857.78;12246648;19;20014;-84
2022/12/26 18:46:26;;;;;;;1.27;1.17;;;13.00;69.20;;;11.80;67.77;100859.97;12247814;19;20089;-85
2022/12/26 18:50:29;;;;;;;2.08;1.58;;;13.00;68.10;;;11.76;67.91;100852.38;12246315;19;20427;-84
2022/12/26 18:54:31;;;;;;;1.55;1.45;;;13.00;68.00;;;11.53;67.69;100838.88;12251182;19;20011;-84
2022/12/26 18:58:33;;;;;;;1.50;1.40;;;13.00;67.90;;;11.60;67.73;100855.88;12248722;19;20031;-84
2022/12/26 19:02:35;;;;;;;6.30;2.00;;;12.90;67.40;;;11.72;67.73;100880.50;12248636;19;20022;-84
2022/12/26 19:06:36;;;;;;;3.35;2.13;;;12.90;67.30;;;11.69;67.76;100880.66;12249209;19;20427;-84
2022/12/26 19:10:43;;;;;;;1.40;1.35;;;12.90;67.00;;;11.71;67.61;100904.94;12246249;19;20765;-85
2022/12/26 19:14:45;;;;;;;1.85;1.67;;;12.80;67.10;;;11.68;67.56;100894.66;12245137;19;20021;-84
2022/12/26 19:18:46;;;;;;;1.67;1.50;;;12.80;67.10;;;11.57;67.65;100887.44;12246486;19;20015;-84
2022/12/26 19:22:50;;;;;;;1.50;1.40;;;12.80;66.90;;;11.60;67.66;100915.19;12245224;19;20022;-84
2022/12/26 19:26:52;;;;;;;2.00;1.40;;;12.80;66.30;;;11.50;67.40;100914.84;12246595;19;20018;-84
2022/12/26 19:30:54;;;;;;;2.75;1.55;;;12.70;66.10;;;11.55;67.49;100951.22;12242860;19;20029;-84